sensor_id;sensor_type;location;lat;lon;timestamp;pressure;altitude;pressure_sealevel;temperature;humidity
78932;BME280;68331;53.362;55.932;2023-03-04T00:00:40;99239.16;;;-1.87;74.31
78932;BME280;68331;53.362;55.932;2023-03-04T00:03:10;99240.03;;;-1.83;74.18
78932;BME280;68331;53.362;55.932;2023-03-04T00:05:36;99240.00;;;-1.86;74.18
78932;BME280;68331;53.362;55.932;2023-03-04T00:08:02;99243.44;;;-1.85;74.07
78932;BME280;68331;53.362;55.932;2023-03-04T00:10:28;99253.78;;;-1.87;74.36
78932;BME280;68331;53.362;55.932;2023-03-04T00:12:54;99246.03;;;-1.87;74.26
78932;BME280;68331;53.362;55.932;2023-03-04T00:15:20;99248.63;;;-1.87;74.36
78932;BME280;68331;53.362;55.932;2023-03-04T00:17:46;99245.22;;;-1.84;74.27
78932;BME280;68331;53.362;55.932;2023-03-04T00:20:13;99250.41;;;-1.81;74.51
78932;BME280;68331;53.362;55.932;2023-03-04T00:22:39;99255.56;;;-1.80;74.40
78932;BME280;68331;53.362;55.932;2023-03-04T00:25:05;99255.59;;;-1.78;74.33
78932;BME280;68331;53.362;55.932;2023-03-04T00:27:31;99255.59;;;-1.77;74.49
78932;BME280;68331;53.362;55.932;2023-03-04T00:29:57;99264.22;;;-1.78;74.79
78932;BME280;68331;53.362;55.932;2023-03-04T00:32:24;99266.81;;;-1.78;74.62
78932;BME280;68331;53.362;55.932;2023-03-04T00:34:49;99252.13;;;-1.80;75.02
78932;BME280;68331;53.362;55.932;2023-03-04T00:37:15;99255.59;;;-1.78;75.33
78932;BME280;68331;53.362;55.932;2023-03-04T00:39:42;99258.19;;;-1.77;75.58
78932;BME280;68331;53.362;55.932;2023-03-04T00:42:08;99253.03;;;-1.75;75.60
78932;BME280;68331;53.362;55.932;2023-03-04T00:44:34;99254.75;;;-1.73;75.62
78932;BME280;68331;53.362;55.932;2023-03-04T00:46:59;99256.50;;;-1.70;75.79
78932;BME280;68331;53.362;55.932;2023-03-04T00:49:25;99259.16;;;-1.66;75.89
78932;BME280;68331;53.362;55.932;2023-03-04T00:51:51;99248.81;;;-1.66;75.83
78932;BME280;68331;53.362;55.932;2023-03-04T00:54:17;99250.50;;;-1.68;75.98
78932;BME280;68331;53.362;55.932;2023-03-04T00:56:43;99255.69;;;-1.65;76.32
78932;BME280;68331;53.362;55.932;2023-03-04T00:59:09;99251.38;;;-1.64;76.29
78932;BME280;68331;53.362;55.932;2023-03-04T01:01:35;99245.34;;;-1.63;76.64
78932;BME280;68331;53.362;55.932;2023-03-04T01:04:01;99256.59;;;-1.62;77.03
78932;BME280;68331;53.362;55.932;2023-03-04T01:06:27;99254.00;;;-1.62;76.82
78932;BME280;68331;53.362;55.932;2023-03-04T01:08:52;99254.84;;;-1.64;77.11
78932;BME280;68331;53.362;55.932;2023-03-04T01:11:18;99249.66;;;-1.65;77.57
78932;BME280;68331;53.362;55.932;2023-03-04T01:13:46;99253.06;;;-1.72;77.94
78932;BME280;68331;53.362;55.932;2023-03-04T01:16:13;99253.06;;;-1.72;78.49
78932;BME280;68331;53.362;55.932;2023-03-04T01:18:39;99251.28;;;-1.76;78.74
78932;BME280;68331;53.362;55.932;2023-03-04T01:21:05;99253.03;;;-1.74;78.81
78932;BME280;68331;53.362;55.932;2023-03-04T01:23:31;99257.31;;;-1.76;79.60
78932;BME280;68331;53.362;55.932;2023-03-04T01:25:57;99253.84;;;-1.79;79.95
78932;BME280;68331;53.362;55.932;2023-03-04T01:28:24;99254.69;;;-1.82;80.09
78932;BME280;68331;53.362;55.932;2023-03-04T01:30:50;99254.69;;;-1.82;80.54
78932;BME280;68331;53.362;55.932;2023-03-04T01:33:15;99259.03;;;-1.79;80.84
78932;BME280;68331;53.362;55.932;2023-03-04T01:35:41;99256.41;;;-1.82;81.03
78932;BME280;68331;53.362;55.932;2023-03-04T01:38:07;99253.78;;;-1.85;81.37
78932;BME280;68331;53.362;55.932;2023-03-04T01:40:33;99260.72;;;-1.84;81.53
78932;BME280;68331;53.362;55.932;2023-03-04T01:42:59;99246.91;;;-1.87;81.74
78932;BME280;68331;53.362;55.932;2023-03-04T01:45:25;99240.88;;;-1.85;81.88
78932;BME280;68331;53.362;55.932;2023-03-04T01:47:51;99253.78;;;-1.85;82.02
78932;BME280;68331;53.362;55.932;2023-03-04T01:50:32;99254.69;;;-1.83;82.08
78932;BME280;68331;53.362;55.932;2023-03-04T01:53:00;99260.72;;;-1.84;82.58
78932;BME280;68331;53.362;55.932;2023-03-04T01:55:28;99265.91;;;-1.80;82.42
78932;BME280;68331;53.362;55.932;2023-03-04T01:57:54;99260.78;;;-1.74;82.49
78932;BME280;68331;53.362;55.932;2023-03-04T02:00:26;99259.16;;;-1.66;82.41
78932;BME280;68331;53.362;55.932;2023-03-04T02:02:56;99255.75;;;-1.58;82.38
78932;BME280;68331;53.362;55.932;2023-03-04T02:05:23;99264.38;;;-1.55;82.19
78932;BME280;68331;53.362;55.932;2023-03-04T02:07:50;99255.81;;;-1.49;82.49
78932;BME280;68331;53.362;55.932;2023-03-04T02:10:17;99255.88;;;-1.38;81.87
78932;BME280;68331;53.362;55.932;2023-03-04T02:12:43;99253.34;;;-1.28;81.92
78932;BME280;68331;53.362;55.932;2023-03-04T02:15:10;99251.72;;;-1.13;81.63
78932;BME280;68331;53.362;55.932;2023-03-04T02:17:36;99245.72;;;-1.06;81.51
78932;BME280;68331;53.362;55.932;2023-03-04T02:20:21;99244.03;;;-0.97;81.59
78932;BME280;68331;53.362;55.932;2023-03-04T02:25:41;99232.88;;;-0.85;81.47
78932;BME280;68331;53.362;55.932;2023-03-04T02:28:10;99237.19;;;-0.81;81.39
78932;BME280;68331;53.362;55.932;2023-03-04T02:30:36;99238.94;;;-0.78;80.88
78932;BME280;68331;53.362;55.932;2023-03-04T02:33:02;99244.13;;;-0.78;81.02
78932;BME280;68331;53.362;55.932;2023-03-04T02:35:29;99253.63;;;-0.76;80.82
78932;BME280;68331;53.362;55.932;2023-03-04T02:37:55;99260.53;;;-0.75;80.54
78932;BME280;68331;53.362;55.932;2023-03-04T02:40:32;99253.63;;;-0.71;80.58
78932;BME280;68331;53.362;55.932;2023-03-04T02:43:00;99248.50;;;-0.66;80.70
78932;BME280;68331;53.362;55.932;2023-03-04T02:46:02;99254.53;;;-0.64;80.27
78932;BME280;68331;53.362;55.932;2023-03-04T02:48:21;99244.16;;;-0.61;80.36
78932;BME280;68331;53.362;55.932;2023-03-04T02:50:51;99244.16;;;-0.61;80.11
78932;BME280;68331;53.362;55.932;2023-03-04T02:53:17;99256.28;;;-0.63;80.14
78932;BME280;68331;53.362;55.932;2023-03-04T02:55:45;99250.22;;;-0.59;80.13
78932;BME280;68331;53.362;55.932;2023-03-04T02:58:12;99251.97;;;-0.57;79.95
78932;BME280;68331;53.362;55.932;2023-03-04T03:00:39;99263.19;;;-0.55;79.91
78932;BME280;68331;53.362;55.932;2023-03-04T03:03:06;99258.03;;;-0.50;79.85
78932;BME280;68331;53.362;55.932;2023-03-04T03:05:36;99245.91;;;-0.56;79.86
78932;BME280;68331;53.362;55.932;2023-03-04T03:08:02;99257.16;;;-0.60;80.00
78932;BME280;68331;53.362;55.932;2023-03-04T03:10:29;99257.16;;;-0.55;80.08
78932;BME280;68331;53.362;55.932;2023-03-04T03:12:55;99250.25;;;-0.49;80.00
78932;BME280;68331;53.362;55.932;2023-03-04T03:15:21;99261.50;;;-0.45;79.90
78932;BME280;68331;53.362;55.932;2023-03-04T03:17:47;99259.78;;;-0.40;79.63
78932;BME280;68331;53.362;55.932;2023-03-04T03:20:14;99262.38;;;-0.35;79.33
78932;BME280;68331;53.362;55.932;2023-03-04T03:22:41;99250.31;;;-0.33;79.29
78932;BME280;68331;53.362;55.932;2023-03-04T03:25:09;99263.28;;;-0.22;78.98
78932;BME280;68331;53.362;55.932;2023-03-04T03:27:36;99255.50;;;-0.19;78.57
78932;BME280;68331;53.362;55.932;2023-03-04T03:30:04;99260.72;;;-0.12;78.35
78932;BME280;68331;53.362;55.932;2023-03-04T03:32:30;99260.69;;;-0.16;78.50
78932;BME280;68331;53.362;55.932;2023-03-04T03:34:56;99265.88;;;-0.16;78.27
78932;BME280;68331;53.362;55.932;2023-03-04T03:37:22;99262.44;;;-0.11;78.29
78932;BME280;68331;53.362;55.932;2023-03-04T03:39:48;99255.53;;;-0.09;78.19
78932;BME280;68331;53.362;55.932;2023-03-04T03:42:13;99266.75;;;-0.07;77.71
78932;BME280;68331;53.362;55.932;2023-03-04T03:44:39;99269.38;;;-0.01;77.82
78932;BME280;68331;53.362;55.932;2023-03-04T03:47:06;99271.13;;;0.11;77.45
78932;BME280;68331;53.362;55.932;2023-03-04T03:49:32;99280.63;;;0.08;77.23
78932;BME280;68331;53.362;55.932;2023-03-04T03:51:57;99280.63;;;-0.03;77.08
78932;BME280;68331;53.362;55.932;2023-03-04T03:54:23;99284.91;;;-0.10;76.99
78932;BME280;68331;53.362;55.932;2023-03-04T03:56:49;99292.69;;;-0.11;77.25
78932;BME280;68331;53.362;55.932;2023-03-04T03:59:15;99289.25;;;-0.03;77.14
78932;BME280;68331;53.362;55.932;2023-03-04T04:01:41;99293.59;;;0.00;76.88
78932;BME280;68331;53.362;55.932;2023-03-04T04:04:07;99296.19;;;-0.03;76.79
78932;BME280;68331;53.362;55.932;2023-03-04T04:06:33;99294.47;;;0.04;76.60
78932;BME280;68331;53.362;55.932;2023-03-04T04:08:59;99295.31;;;0.12;76.32
78932;BME280;68331;53.362;55.932;2023-03-04T04:11:25;99309.16;;;0.12;75.93
78932;BME280;68331;53.362;55.932;2023-03-04T04:13:52;99306.56;;;0.08;75.91
78932;BME280;68331;53.362;55.932;2023-03-04T04:16:19;99305.69;;;0.12;76.00
78932;BME280;68331;53.362;55.932;2023-03-04T04:18:45;99303.97;;;0.21;75.42
78932;BME280;68331;53.362;55.932;2023-03-04T04:21:11;99296.19;;;0.31;75.36
78932;BME280;68331;53.362;55.932;2023-03-04T04:23:37;99301.41;;;0.37;74.86
78932;BME280;68331;53.362;55.932;2023-03-04T04:26:03;99309.19;;;0.38;74.83
78932;BME280;68331;53.362;55.932;2023-03-04T04:28:29;99291.88;;;0.40;75.02
78932;BME280;68331;53.362;55.932;2023-03-04T04:30:55;99297.09;;;0.45;74.49
78932;BME280;68331;53.362;55.932;2023-03-04T04:33:21;99292.75;;;0.39;74.43
78932;BME280;68331;53.362;55.932;2023-03-04T04:35:46;99282.38;;;0.33;74.82
78932;BME280;68331;53.362;55.932;2023-03-04T04:38:14;99286.69;;;0.37;74.71
78932;BME280;68331;53.362;55.932;2023-03-04T04:40:40;99284.94;;;0.35;74.36
78932;BME280;68331;53.362;55.932;2023-03-04T04:43:08;99286.69;;;0.30;74.52
78932;BME280;68331;53.362;55.932;2023-03-04T04:45:33;99288.41;;;0.31;74.41
78932;BME280;68331;53.362;55.932;2023-03-04T04:48:00;99299.69;;;0.39;74.29
78932;BME280;68331;53.362;55.932;2023-03-04T04:50:26;99290.16;;;0.42;74.50
78932;BME280;68331;53.362;55.932;2023-03-04T04:52:52;99306.59;;;0.52;73.87
78932;BME280;68331;53.362;55.932;2023-03-04T04:55:18;99314.38;;;0.51;74.05
78932;BME280;68331;53.362;55.932;2023-03-04T04:57:45;99313.50;;;0.47;74.49
78932;BME280;68331;53.362;55.932;2023-03-04T05:00:11;99316.97;;;0.43;74.48
78932;BME280;68331;53.362;55.932;2023-03-04T05:02:37;99321.28;;;0.38;74.60
78932;BME280;68331;53.362;55.932;2023-03-04T05:05:05;99313.50;;;0.32;74.97
78932;BME280;68331;53.362;55.932;2023-03-04T05:07:32;99315.22;;;0.23;74.82
78932;BME280;68331;53.362;55.932;2023-03-04T05:09:58;99316.09;;;0.10;75.34
78932;BME280;68331;53.362;55.932;2023-03-04T05:12:25;99306.56;;;0.12;75.04
78932;BME280;68331;53.362;55.932;2023-03-04T05:14:51;99316.09;;;0.30;75.03
78932;BME280;68331;53.362;55.932;2023-03-04T05:17:18;99316.97;;;0.34;74.63
78932;BME280;68331;53.362;55.932;2023-03-04T05:19:44;99315.25;;;0.45;74.23
78932;BME280;68331;53.362;55.932;2023-03-04T05:22:10;99297.94;;;0.47;74.03
78932;BME280;68331;53.362;55.932;2023-03-04T05:24:36;99304.00;;;0.61;73.66
78932;BME280;68331;53.362;55.932;2023-03-04T05:27:02;99291.84;;;0.76;73.46
78932;BME280;68331;53.362;55.932;2023-03-04T05:29:28;99284.09;;;0.80;72.98
78932;BME280;68331;53.362;55.932;2023-03-04T05:31:54;99273.66;;;0.94;72.63
78932;BME280;68331;53.362;55.932;2023-03-04T05:34:20;99273.63;;;1.12;72.04
78932;BME280;68331;53.362;55.932;2023-03-04T05:36:47;99277.88;;;1.29;71.55
78932;BME280;68331;53.362;55.932;2023-03-04T05:39:13;99271.78;;;1.36;70.88
78932;BME280;68331;53.362;55.932;2023-03-04T05:41:39;99276.03;;;1.57;70.79
78932;BME280;68331;53.362;55.932;2023-03-04T05:44:05;99272.47;;;1.72;69.99
78932;BME280;68331;53.362;55.932;2023-03-04T05:46:31;99274.25;;;1.67;70.37
78932;BME280;68331;53.362;55.932;2023-03-04T05:48:57;99263.72;;;1.86;69.98
78932;BME280;68331;53.362;55.932;2023-03-04T05:51:23;99263.63;;;2.00;69.38
78932;BME280;68331;53.362;55.932;2023-03-04T05:53:49;99269.72;;;2.02;68.86
78932;BME280;68331;53.362;55.932;2023-03-04T05:56:18;99275.81;;;1.98;69.11
78932;BME280;68331;53.362;55.932;2023-03-04T05:58:44;99274.91;;;2.02;68.75
78932;BME280;68331;53.362;55.932;2023-03-04T06:01:15;99274.91;;;2.01;68.19
78932;BME280;68331;53.362;55.932;2023-03-04T06:03:41;99281.00;;;1.98;68.81
78932;BME280;68331;53.362;55.932;2023-03-04T06:06:10;99281.75;;;2.16;68.17
78932;BME280;68331;53.362;55.932;2023-03-04T06:08:35;99265.06;;;2.43;67.77
78932;BME280;68331;53.362;55.932;2023-03-04T06:11:01;99280.22;;;2.93;66.16
78932;BME280;68331;53.362;55.932;2023-03-04T06:13:29;99276.81;;;2.88;66.18
78932;BME280;68331;53.362;55.932;2023-03-04T06:15:57;99288.28;;;2.69;66.44
78932;BME280;68331;53.362;55.932;2023-03-04T06:18:24;99279.91;;;2.33;67.32
78932;BME280;68331;53.362;55.932;2023-03-04T06:20:54;99291.38;;;2.04;68.27
78932;BME280;68331;53.362;55.932;2023-03-04T06:23:20;99284.41;;;2.06;68.34
78932;BME280;68331;53.362;55.932;2023-03-04T06:25:46;99283.41;;;2.27;67.82
78932;BME280;68331;53.362;55.932;2023-03-04T06:28:15;99294.00;;;2.04;68.17
78932;BME280;68331;53.362;55.932;2023-03-04T06:30:41;99294.91;;;1.96;69.11
78932;BME280;68331;53.362;55.932;2023-03-04T06:33:07;99296.69;;;1.86;69.06
78932;BME280;68331;53.362;55.932;2023-03-04T06:35:33;99289.72;;;1.90;69.07
78932;BME280;68331;53.362;55.932;2023-03-04T06:37:59;99293.97;;;2.06;68.82
78932;BME280;68331;53.362;55.932;2023-03-04T06:40:25;99282.47;;;2.38;67.73
78932;BME280;68331;53.362;55.932;2023-03-04T06:42:50;99299.03;;;2.26;67.82
78932;BME280;68331;53.362;55.932;2023-03-04T06:45:16;99285.38;;;1.93;68.49
78932;BME280;68331;53.362;55.932;2023-03-04T06:47:42;99294.22;;;1.63;69.62
78932;BME280;68331;53.362;55.932;2023-03-04T06:50:11;99284.75;;;1.45;70.21
78932;BME280;68331;53.362;55.932;2023-03-04T06:52:37;99287.38;;;1.41;70.52
78932;BME280;68331;53.362;55.932;2023-03-04T06:55:04;99272.50;;;1.70;69.84
78932;BME280;68331;53.362;55.932;2023-03-04T06:57:30;99267.78;;;2.30;68.42
78932;BME280;68331;53.362;55.932;2023-03-04T06:59:56;99267.16;;;2.96;66.36
78932;BME280;68331;53.362;55.932;2023-03-04T07:02:22;99275.56;;;3.23;64.51
78932;BME280;68331;53.362;55.932;2023-03-04T07:04:48;99265.41;;;2.98;64.76
78932;BME280;68331;53.362;55.932;2023-03-04T07:07:14;99270.69;;;2.92;65.29
78932;BME280;68331;53.362;55.932;2023-03-04T07:09:40;99269.03;;;2.85;65.53
78932;BME280;68331;53.362;55.932;2023-03-04T07:12:06;99257.00;;;2.72;65.90
78932;BME280;68331;53.362;55.932;2023-03-04T07:14:32;99264.06;;;2.58;66.22
78932;BME280;68331;53.362;55.932;2023-03-04T07:16:58;99270.28;;;2.41;66.80
78932;BME280;68331;53.362;55.932;2023-03-04T07:19:24;99272.81;;;2.50;66.92
78932;BME280;68331;53.362;55.932;2023-03-04T07:21:50;99256.31;;;2.53;66.31
78932;BME280;68331;53.362;55.932;2023-03-04T07:24:16;99265.91;;;2.46;66.76
78932;BME280;68331;53.362;55.932;2023-03-04T07:26:42;99270.19;;;2.53;66.81
78932;BME280;68331;53.362;55.932;2023-03-04T07:29:08;99269.41;;;2.41;66.83
78932;BME280;68331;53.362;55.932;2023-03-04T07:31:34;99276.41;;;2.37;66.68
78932;BME280;68331;53.362;55.932;2023-03-04T07:34:04;99261.78;;;2.21;67.25
78932;BME280;68331;53.362;55.932;2023-03-04T07:36:32;99260.09;;;2.12;67.52
78932;BME280;68331;53.362;55.932;2023-03-04T07:38:58;99267.13;;;1.99;67.71
78932;BME280;68331;53.362;55.932;2023-03-04T07:41:25;99267.13;;;1.99;67.61
78932;BME280;68331;53.362;55.932;2023-03-04T07:43:52;99246.22;;;2.15;67.45
78932;BME280;68331;53.362;55.932;2023-03-04T07:46:20;99267.03;;;2.10;67.29
78932;BME280;68331;53.362;55.932;2023-03-04T07:48:46;99255.75;;;2.17;66.97
78932;BME280;68331;53.362;55.932;2023-03-04T07:51:18;99256.53;;;2.25;66.70
78932;BME280;68331;53.362;55.932;2023-03-04T07:53:46;99259.88;;;2.41;66.30
78932;BME280;68331;53.362;55.932;2023-03-04T07:56:20;99261.38;;;2.68;65.59
78932;BME280;68331;53.362;55.932;2023-03-04T07:58:48;99269.97;;;2.76;64.80
78932;BME280;68331;53.362;55.932;2023-03-04T08:01:16;99269.19;;;2.67;65.06
78932;BME280;68331;53.362;55.932;2023-03-04T08:03:43;99259.50;;;2.79;64.65
78932;BME280;68331;53.362;55.932;2023-03-04T08:06:15;99267.16;;;2.96;64.74
78932;BME280;68331;53.362;55.932;2023-03-04T08:08:42;99252.22;;;3.14;64.10
78932;BME280;68331;53.362;55.932;2023-03-04T08:11:11;99256.50;;;3.19;63.81
78932;BME280;68331;53.362;55.932;2023-03-04T08:13:39;99253.94;;;3.16;63.59
78932;BME280;68331;53.362;55.932;2023-03-04T08:16:06;99255.78;;;3.05;63.81
78932;BME280;68331;53.362;55.932;2023-03-04T08:18:33;99255.91;;;2.94;64.35
78932;BME280;68331;53.362;55.932;2023-03-04T08:20:59;99258.72;;;2.74;64.79
78932;BME280;68331;53.362;55.932;2023-03-04T08:23:26;99254.38;;;2.73;65.00
78932;BME280;68331;53.362;55.932;2023-03-04T08:25:52;99248.97;;;2.90;64.72
78932;BME280;68331;53.362;55.932;2023-03-04T08:28:19;99256.72;;;2.96;64.86
78932;BME280;68331;53.362;55.932;2023-03-04T08:30:51;99256.97;;;2.75;65.30
78932;BME280;68331;53.362;55.932;2023-03-04T08:33:17;99247.47;;;2.69;66.19
78932;BME280;68331;53.362;55.932;2023-03-04T08:35:43;99250.63;;;2.99;65.69
78932;BME280;68331;53.362;55.932;2023-03-04T08:38:09;99243.22;;;3.39;64.50
78932;BME280;68331;53.362;55.932;2023-03-04T08:40:35;99246.13;;;3.81;63.07
78932;BME280;68331;53.362;55.932;2023-03-04T08:43:00;99236.50;;;3.85;62.59
78932;BME280;68331;53.362;55.932;2023-03-04T08:45:26;99236.75;;;3.66;63.02
78932;BME280;68331;53.362;55.932;2023-03-04T08:47:52;99234.38;;;3.49;63.67
78932;BME280;68331;53.362;55.932;2023-03-04T08:50:18;99235.41;;;3.39;64.18
78932;BME280;68331;53.362;55.932;2023-03-04T08:52:44;99220.38;;;3.58;64.21
78932;BME280;68331;53.362;55.932;2023-03-04T08:55:10;99227.88;;;3.80;63.44
78932;BME280;68331;53.362;55.932;2023-03-04T08:57:36;99218.88;;;4.02;62.92
78932;BME280;68331;53.362;55.932;2023-03-04T09:00:03;99217.31;;;3.90;62.85
78932;BME280;68331;53.362;55.932;2023-03-04T09:02:30;99212.03;;;3.92;62.80
78932;BME280;68331;53.362;55.932;2023-03-04T09:04:56;99222.03;;;3.64;63.37
78932;BME280;68331;53.362;55.932;2023-03-04T09:07:22;99223.28;;;3.34;64.53
78932;BME280;68331;53.362;55.932;2023-03-04T09:09:48;99218.25;;;3.18;64.99
78932;BME280;68331;53.362;55.932;2023-03-04T09:12:14;99222.06;;;2.91;65.85
78932;BME280;68331;53.362;55.932;2023-03-04T09:14:40;99217.72;;;2.92;65.74
78932;BME280;68331;53.362;55.932;2023-03-04T09:17:06;99210.69;;;2.98;65.37
78932;BME280;68331;53.362;55.932;2023-03-04T09:19:32;99217.50;;;3.09;64.83
78932;BME280;68331;53.362;55.932;2023-03-04T09:21:58;99206.72;;;3.39;64.11
78932;BME280;68331;53.362;55.932;2023-03-04T09:24:25;99206.09;;;3.84;63.01
78932;BME280;68331;53.362;55.932;2023-03-04T09:26:52;99194.66;;;3.91;62.03
78932;BME280;68331;53.362;55.932;2023-03-04T09:29:18;99202.50;;;3.91;62.10
78932;BME280;68331;53.362;55.932;2023-03-04T09:31:44;99200.28;;;4.22;61.28
78932;BME280;68331;53.362;55.932;2023-03-04T09:34:10;99193.63;;;4.54;60.20
78932;BME280;68331;53.362;55.932;2023-03-04T09:36:36;99186.09;;;4.83;59.10
78932;BME280;68331;53.362;55.932;2023-03-04T09:39:03;99185.09;;;5.32;58.20
78932;BME280;68331;53.362;55.932;2023-03-04T09:41:42;99168.69;;;5.65;56.20
78932;BME280;68331;53.362;55.932;2023-03-04T09:44:28;99166.19;;;5.60;55.98
78932;BME280;68331;53.362;55.932;2023-03-04T09:47:00;99176.34;;;5.35;56.62
78932;BME280;68331;53.362;55.932;2023-03-04T09:49:27;99172.06;;;4.87;57.67
78932;BME280;68331;53.362;55.932;2023-03-04T09:52:13;99175.41;;;4.49;58.75
78932;BME280;68331;53.362;55.932;2023-03-04T09:57:29;99178.94;;;4.48;59.45
78932;BME280;68331;53.362;55.932;2023-03-04T10:00:17;99184.69;;;4.16;60.03
78932;BME280;68331;53.362;55.932;2023-03-04T10:05:31;99176.03;;;3.58;61.47
78932;BME280;68331;53.362;55.932;2023-03-04T10:08:13;99170.09;;;3.48;62.31
78932;BME280;68331;53.362;55.932;2023-03-04T10:10:43;99162.00;;;3.65;61.98
78932;BME280;68331;53.362;55.932;2023-03-04T10:13:15;99180.91;;;3.81;61.24
78932;BME280;68331;53.362;55.932;2023-03-04T10:15:47;99173.97;;;3.79;61.49
78932;BME280;68331;53.362;55.932;2023-03-04T10:18:20;99166.72;;;3.97;60.98
78932;BME280;68331;53.362;55.932;2023-03-04T10:23:34;99162.41;;;3.95;60.49
78932;BME280;68331;53.362;55.932;2023-03-04T10:26:12;99161.06;;;3.71;61.19
78932;BME280;68331;53.362;55.932;2023-03-04T10:28:39;99161.88;;;3.73;61.47
78932;BME280;68331;53.362;55.932;2023-03-04T10:31:11;99165.88;;;3.95;61.08
78932;BME280;68331;53.362;55.932;2023-03-04T10:33:40;99157.78;;;4.12;60.28
78932;BME280;68331;53.362;55.932;2023-03-04T10:39:39;99156.91;;;4.13;59.53
78932;BME280;68331;53.362;55.932;2023-03-04T10:41:58;99150.03;;;4.08;60.04
78932;BME280;68331;53.362;55.932;2023-03-04T10:44:25;99139.53;;;4.12;59.88
78932;BME280;68331;53.362;55.932;2023-03-04T10:46:54;99144.94;;;3.99;59.96
78932;BME280;68331;53.362;55.932;2023-03-04T10:49:21;99137.53;;;3.74;60.48
78932;BME280;68331;53.362;55.932;2023-03-04T10:54:48;99145.63;;;3.56;61.16
78932;BME280;68331;53.362;55.932;2023-03-04T10:57:37;99136.91;;;3.58;61.22
78932;BME280;68331;53.362;55.932;2023-03-04T11:02:45;99132.31;;;3.74;60.52
78932;BME280;68331;53.362;55.932;2023-03-04T11:07:43;99129.22;;;3.49;61.04
78932;BME280;68331;53.362;55.932;2023-03-04T11:12:40;99135.88;;;3.08;62.58
78932;BME280;68331;53.362;55.932;2023-03-04T11:15:18;99143.22;;;2.75;64.23
78932;BME280;68331;53.362;55.932;2023-03-04T11:17:49;99154.78;;;2.48;65.62
78932;BME280;68331;53.362;55.932;2023-03-04T11:20:32;99144.69;;;2.18;66.89
78932;BME280;68331;53.362;55.932;2023-03-04T11:23:11;99137.75;;;2.18;67.78
78932;BME280;68331;53.362;55.932;2023-03-04T11:25:42;99129.91;;;2.20;67.84
78932;BME280;68331;53.362;55.932;2023-03-04T11:28:17;99129.13;;;2.15;68.31
78932;BME280;68331;53.362;55.932;2023-03-04T11:33:28;99123.34;;;1.82;70.03
78932;BME280;68331;53.362;55.932;2023-03-04T11:38:40;99112.97;;;1.74;70.78
78932;BME280;68331;53.362;55.932;2023-03-04T11:41:24;99111.28;;;1.69;71.09
78932;BME280;68331;53.362;55.932;2023-03-04T11:43:55;99104.28;;;1.75;71.56
78932;BME280;68331;53.362;55.932;2023-03-04T11:52:47;99087.03;;;1.70;72.14
78932;BME280;68331;53.362;55.932;2023-03-04T12:08:36;99065.59;;;1.37;74.66
78932;BME280;68331;53.362;55.932;2023-03-04T12:11:20;99056.06;;;1.42;74.48
78932;BME280;68331;53.362;55.932;2023-03-04T12:14:22;99056.06;;;1.39;74.29
78932;BME280;68331;53.362;55.932;2023-03-04T12:22:44;99064.19;;;0.93;76.33
78932;BME280;68331;53.362;55.932;2023-03-04T12:56:43;99032.28;;;0.71;77.41
78932;BME280;68331;53.362;55.932;2023-03-04T12:59:16;99027.13;;;0.62;77.48
78932;BME280;68331;53.362;55.932;2023-03-04T13:02:36;99030.59;;;0.64;77.73
78932;BME280;68331;53.362;55.932;2023-03-04T13:05:31;99023.69;;;0.57;77.45
78932;BME280;68331;53.362;55.932;2023-03-04T13:08:10;99024.56;;;0.54;77.45
78932;BME280;68331;53.362;55.932;2023-03-04T13:10:38;99023.72;;;0.55;77.36
78932;BME280;68331;53.362;55.932;2023-03-04T13:13:04;99019.41;;;0.51;77.48
78932;BME280;68331;53.362;55.932;2023-03-04T13:15:33;99018.56;;;0.43;77.92
78932;BME280;68331;53.362;55.932;2023-03-04T13:18:30;99011.66;;;0.37;78.10
78932;BME280;68331;53.362;55.932;2023-03-04T13:21:20;99008.25;;;0.25;78.32
78932;BME280;68331;53.362;55.932;2023-03-04T13:23:47;99007.44;;;0.15;79.04
78932;BME280;68331;53.362;55.932;2023-03-04T13:26:42;99005.72;;;0.12;79.08
78932;BME280;68331;53.362;55.932;2023-03-04T13:32:09;99010.97;;;0.00;79.49
78932;BME280;68331;53.362;55.932;2023-03-04T13:34:47;99010.97;;;-0.05;79.84
78932;BME280;68331;53.362;55.932;2023-03-04T13:37:40;99010.06;;;-0.01;79.96
78932;BME280;68331;53.362;55.932;2023-03-04T13:42:52;99015.28;;;0.01;80.29
78932;BME280;68331;53.362;55.932;2023-03-04T13:45:36;99014.41;;;-0.01;80.04
78932;BME280;68331;53.362;55.932;2023-03-04T13:50:51;99008.34;;;-0.02;80.09
78932;BME280;68331;53.362;55.932;2023-03-04T13:53:28;99010.94;;;-0.02;80.34
78932;BME280;68331;53.362;55.932;2023-03-04T13:58:50;99013.56;;;-0.03;80.55
78932;BME280;68331;53.362;55.932;2023-03-04T14:01:26;99013.56;;;-0.08;80.95
78932;BME280;68331;53.362;55.932;2023-03-04T14:03:53;99007.56;;;-0.19;81.02
78932;BME280;68331;53.362;55.932;2023-03-04T14:06:24;99011.88;;;-0.27;81.36
78932;BME280;68331;53.362;55.932;2023-03-04T14:09:08;99011.00;;;-0.29;81.47
78932;BME280;68331;53.362;55.932;2023-03-04T14:19:27;99011.84;;;-0.26;81.10
78932;BME280;68331;53.362;55.932;2023-03-04T14:22:24;99008.44;;;-0.34;81.51
78932;BME280;68331;53.362;55.932;2023-03-04T14:25:03;99011.88;;;-0.39;81.88
78932;BME280;68331;53.362;55.932;2023-03-04T14:27:32;99004.13;;;-0.47;81.94
78932;BME280;68331;53.362;55.932;2023-03-04T14:30:05;99005.84;;;-0.49;82.16
78932;BME280;68331;53.362;55.932;2023-03-04T14:32:32;98999.81;;;-0.51;82.18
78932;BME280;68331;53.362;55.932;2023-03-04T14:35:02;99007.56;;;-0.48;82.58
78932;BME280;68331;53.362;55.932;2023-03-04T14:37:41;99001.50;;;-0.36;81.85
78932;BME280;68331;53.362;55.932;2023-03-04T14:40:24;98998.94;;;-0.35;81.75
78932;BME280;68331;53.362;55.932;2023-03-04T14:43:02;98993.75;;;-0.35;81.83
78932;BME280;68331;53.362;55.932;2023-03-04T14:45:46;98986.81;;;-0.36;81.69
78932;BME280;68331;53.362;55.932;2023-03-04T14:48:25;98979.94;;;-0.41;81.76
78932;BME280;68331;53.362;55.932;2023-03-04T14:51:03;98982.53;;;-0.37;81.98